Time,TemperatureF,DewpointF,PressureIn,WindDirection,WindDirectionDegrees,WindSpeedMPH,WindSpeedGustMPH,Humidity,HourlyPrecipIn,Conditions,Clouds,dailyrainin,SoftwareType,DateUTC
2013-07-28 00:00:00,64.5,62.1,29.99,SSW,192,1.0,11.0,92,0.00,,,0.00,Wunderground v.1.15,2013-07-28 04:00:00,
2013-07-28 00:05:00,64.4,62.0,29.99,SSW,192,1.0,11.0,92,0.00,,,0.00,Wunderground v.1.15,2013-07-28 04:05:00,
2013-07-28 00:15:00,64.3,61.9,29.99,SSW,192,2.0,11.0,92,0.00,,,0.00,Wunderground v.1.15,2013-07-28 04:15:00,
2013-07-28 00:20:00,64.1,61.7,29.98,SSW,192,1.0,1.0,92,0.00,,,0.00,Wunderground v.1.15,2013-07-28 04:20:00,
2013-07-28 00:25:00,63.9,61.8,29.98,SSW,192,0.0,11.0,93,0.00,,,0.00,Wunderground v.1.15,2013-07-28 04:25:00,
2013-07-28 00:30:00,63.8,61.7,29.99,SSW,192,0.0,11.0,93,0.00,,,0.00,Wunderground v.1.15,2013-07-28 04:30:00,
2013-07-28 00:35:00,63.6,61.5,29.99,SSW,192,0.0,11.0,93,0.00,,,0.00,Wunderground v.1.15,2013-07-28 04:35:00,
2013-07-28 00:45:00,63.4,61.6,29.99,SSW,192,0.0,11.0,94,0.00,,,0.00,Wunderground v.1.15,2013-07-28 04:45:00,
2013-07-28 00:50:00,63.3,61.5,29.98,SSW,192,0.0,11.0,94,0.00,,,0.00,Wunderground v.1.15,2013-07-28 04:50:00,
2013-07-28 00:55:00,63.3,61.2,29.98,SSW,192,0.0,11.0,93,0.00,,,0.00,Wunderground v.1.15,2013-07-28 04:55:00,
2013-07-28 01:00:00,63.3,61.2,29.98,SSW,192,1.0,1.0,93,0.00,,,0.00,Wunderground v.1.15,2013-07-28 05:00:00,
2013-07-28 01:05:00,63.4,61.0,29.98,SSW,192,1.0,11.0,92,0.00,,,0.00,Wunderground v.1.15,2013-07-28 05:05:00,
2013-07-28 01:10:00,63.5,61.1,29.98,SSW,192,0.0,11.0,92,0.00,,,0.00,Wunderground v.1.15,2013-07-28 05:10:00,
2013-07-28 01:15:00,63.5,60.8,29.98,SSW,192,0.0,11.0,91,0.00,,,0.00,Wunderground v.1.15,2013-07-28 05:15:00,
2013-07-28 01:20:00,63.4,60.7,29.99,SSW,192,1.0,11.0,91,0.00,,,0.00,Wunderground v.1.15,2013-07-28 05:20:00,
2013-07-28 01:25:00,63.4,61.0,29.99,SSW,192,2.0,11.0,92,0.00,,,0.00,Wunderground v.1.15,2013-07-28 05:25:00,
2013-07-28 01:35:00,63.4,60.7,29.99,SSW,192,1.0,11.0,91,0.00,,,0.00,Wunderground v.1.15,2013-07-28 05:35:00,
2013-07-28 01:40:00,63.2,60.5,29.99,SSW,192,1.0,1.0,91,0.00,,,0.00,Wunderground v.1.15,2013-07-28 05:40:00,
2013-07-28 01:45:00,63.2,60.5,29.99,SSW,202,2.0,2.0,91,0.00,,,0.00,Wunderground v.1.15,2013-07-28 05:45:00,
2013-07-28 01:50:00,63.3,60.6,29.99,SSW,202,2.0,11.0,91,0.00,,,0.00,Wunderground v.1.15,2013-07-28 05:50:00,
2013-07-28 02:00:00,63.5,60.8,29.99,SSW,202,1.0,1.0,91,0.00,,,0.00,Wunderground v.1.15,2013-07-28 06:00:00,
2013-07-28 02:05:00,63.6,60.9,29.99,SSW,202,0.0,11.0,91,0.00,,,0.00,Wunderground v.1.15,2013-07-28 06:05:00,
2013-07-28 02:10:00,63.5,60.8,29.99,SSW,202,0.0,11.0,91,0.00,,,0.00,Wunderground v.1.15,2013-07-28 06:10:00,
2013-07-28 02:15:00,63.2,60.8,29.99,SSW,202,0.0,11.0,92,0.00,,,0.00,Wunderground v.1.15,2013-07-28 06:15:00,
2013-07-28 02:20:00,63.1,60.7,29.98,SSW,201,0.0,11.0,92,0.00,,,0.00,Wunderground v.1.15,2013-07-28 06:20:00,
2013-07-28 02:30:00,63.3,60.9,29.98,SSW,201,1.0,1.0,92,0.00,,,0.00,Wunderground v.1.15,2013-07-28 06:30:00,
2013-07-28 02:35:00,63.4,61.0,29.98,SSW,202,0.0,11.0,92,0.00,,,0.00,Wunderground v.1.15,2013-07-28 06:35:00,
2013-07-28 02:40:00,63.6,60.9,29.98,SSW,202,0.0,11.0,91,0.00,,,0.00,Wunderground v.1.15,2013-07-28 06:40:00,
2013-07-28 02:45:00,63.7,61.0,29.98,SSW,201,0.0,11.0,91,0.00,,,0.00,Wunderground v.1.15,2013-07-28 06:45:00,
2013-07-28 02:50:00,63.6,60.9,29.98,SSW,202,0.0,11.0,91,0.00,,,0.00,Wunderground v.1.15,2013-07-28 06:50:00,
2013-07-28 03:00:00,63.6,61.2,29.98,SSW,202,0.0,11.0,92,0.00,,,0.00,Wunderground v.1.15,2013-07-28 07:00:00,
2013-07-28 03:05:00,63.7,61.3,29.98,SSW,202,0.0,11.0,92,0.00,,,0.00,Wunderground v.1.15,2013-07-28 07:05:00,
2013-07-28 03:10:00,63.7,61.3,29.99,SSW,201,0.0,11.0,92,0.00,,,0.00,Wunderground v.1.15,2013-07-28 07:10:00,
2013-07-28 03:15:00,63.5,61.1,29.98,SSW,202,0.0,11.0,92,0.00,,,0.00,Wunderground v.1.15,2013-07-28 07:15:00,
2013-07-28 03:25:00,63.1,60.7,29.99,SSW,202,0.0,11.0,92,0.00,,,0.00,Wunderground v.1.15,2013-07-28 07:25:00,
2013-07-28 03:30:00,62.7,60.6,29.98,SSW,202,0.0,11.0,93,0.00,,,0.00,Wunderground v.1.15,2013-07-28 07:30:00,
2013-07-28 03:35:00,62.5,60.4,29.98,SSW,202,0.0,11.0,93,0.00,,,0.00,Wunderground v.1.15,2013-07-28 07:35:00,
2013-07-28 03:40:00,62.3,60.2,29.98,SSW,202,0.0,11.0,93,0.00,,,0.00,Wunderground v.1.15,2013-07-28 07:40:00,
2013-07-28 03:50:00,61.9,60.2,29.97,SSW,202,0.0,11.0,94,0.00,,,0.00,Wunderground v.1.15,2013-07-28 07:50:00,
2013-07-28 03:55:00,61.8,60.1,29.97,SSW,201,0.0,11.0,94,0.00,,,0.00,Wunderground v.1.15,2013-07-28 07:55:00,
2013-07-28 04:05:00,62.0,60.3,29.98,SSW,202,0.0,11.0,94,0.00,,,0.00,Wunderground v.1.15,2013-07-28 08:05:00,
2013-07-28 04:10:00,62.1,60.7,29.98,SSW,202,0.0,11.0,95,0.00,,,0.00,Wunderground v.1.15,2013-07-28 08:10:00,
2013-07-28 04:15:00,62.2,60.8,29.98,SSW,202,0.0,11.0,95,0.00,,,0.00,Wunderground v.1.15,2013-07-28 08:15:00,
2013-07-28 04:25:00,62.0,60.3,29.98,SSW,201,0.0,11.0,94,0.00,,,0.00,Wunderground v.1.15,2013-07-28 08:25:00,
2013-07-28 04:30:00,62.1,60.7,29.98,SSW,202,0.0,11.0,95,0.00,,,0.00,Wunderground v.1.15,2013-07-28 08:30:00,
2013-07-28 04:35:00,62.2,60.8,29.98,SSW,202,0.0,11.0,95,0.00,,,0.00,Wunderground v.1.15,2013-07-28 08:35:00,
2013-07-28 04:40:00,62.2,60.8,29.97,SSW,202,1.0,11.0,95,0.00,,,0.00,Wunderground v.1.15,2013-07-28 08:40:00,
2013-07-28 04:45:00,62.3,60.8,29.97,NW,307,2.0,11.0,95,0.00,,,0.00,Wunderground v.1.15,2013-07-28 08:45:00,
2013-07-28 04:55:00,62.2,60.5,29.97,NW,306,1.0,2.0,94,0.00,,,0.00,Wunderground v.1.15,2013-07-28 08:55:00,
2013-07-28 05:00:00,62.1,60.4,29.97,NW,306,1.0,11.0,94,0.00,,,0.00,Wunderground v.1.15,2013-07-28 09:00:00,
2013-07-28 05:05:00,62.1,60.4,29.97,NW,307,1.0,11.0,94,0.00,,,0.00,Wunderground v.1.15,2013-07-28 09:05:00,
2013-07-28 05:10:00,62.1,60.4,29.98,NW,307,0.0,11.0,94,0.00,,,0.00,Wunderground v.1.15,2013-07-28 09:10:00,
2013-07-28 05:15:00,62.0,60.3,29.98,NW,307,0.0,11.0,94,0.00,,,0.00,Wunderground v.1.15,2013-07-28 09:15:00,
2013-07-28 05:25:00,62.0,60.3,29.98,NW,306,0.0,11.0,94,0.00,,,0.00,Wunderground v.1.15,2013-07-28 09:25:00,
2013-07-28 05:30:00,62.0,60.3,29.98,NW,306,0.0,11.0,94,0.00,,,0.00,Wunderground v.1.15,2013-07-28 09:30:00,
2013-07-28 05:40:00,62.1,60.7,29.98,NW,307,0.0,11.0,95,0.00,,,0.00,Wunderground v.1.15,2013-07-28 09:40:00,
2013-07-28 05:45:00,62.2,60.8,29.98,NW,306,0.0,11.0,95,0.00,,,0.00,Wunderground v.1.15,2013-07-28 09:45:00,
2013-07-28 05:50:00,62.2,60.8,29.98,NW,307,0.0,11.0,95,0.00,,,0.00,Wunderground v.1.15,2013-07-28 09:50:00,
2013-07-28 05:55:00,62.3,60.8,29.98,NW,307,0.0,11.0,95,0.00,,,0.00,Wunderground v.1.15,2013-07-28 09:55:00,
2013-07-28 06:00:00,62.3,60.8,29.98,NW,307,0.0,11.0,95,0.00,,,0.00,Wunderground v.1.15,2013-07-28 10:00:00,
2013-07-28 06:10:00,62.5,61.0,29.98,NW,307,0.0,11.0,95,0.00,,,0.00,Wunderground v.1.15,2013-07-28 10:10:00,
2013-07-28 06:15:00,62.6,61.1,29.98,NW,307,0.0,11.0,95,0.00,,,0.00,Wunderground v.1.15,2013-07-28 10:15:00,
2013-07-28 06:20:00,62.8,61.3,29.98,NW,307,0.0,11.0,95,0.00,,,0.00,Wunderground v.1.15,2013-07-28 10:20:00,
2013-07-28 06:25:00,62.9,61.4,29.98,NW,307,0.0,11.0,95,0.00,,,0.00,Wunderground v.1.15,2013-07-28 10:25:00,
2013-07-28 06:35:00,63.1,61.6,29.97,NW,307,0.0,11.0,95,0.00,,,0.00,Wunderground v.1.15,2013-07-28 10:35:00,
2013-07-28 06:40:00,63.5,62.0,29.97,NW,306,0.0,11.0,95,0.00,,,0.00,Wunderground v.1.15,2013-07-28 10:40:00,
2013-07-28 06:45:00,63.8,62.3,29.97,NW,307,0.0,11.0,95,0.00,,,0.00,Wunderground v.1.15,2013-07-28 10:45:00,
2013-07-28 06:50:00,64.2,62.4,29.97,NW,306,1.0,1.0,94,0.00,,,0.00,Wunderground v.1.15,2013-07-28 10:50:00,
2013-07-28 06:55:00,64.6,62.8,29.97,NW,307,1.0,11.0,94,0.00,,,0.00,Wunderground v.1.15,2013-07-28 10:55:00,
2013-07-28 07:05:00,65.4,63.3,29.98,NW,306,0.0,11.0,93,0.00,,,0.00,Wunderground v.1.15,2013-07-28 11:05:00,
2013-07-28 07:10:00,65.6,63.5,29.98,NW,306,0.0,11.0,93,0.00,,,0.00,Wunderground v.1.15,2013-07-28 11:10:00,
2013-07-28 07:15:00,65.8,63.4,29.98,NW,307,0.0,11.0,92,0.00,,,0.00,Wunderground v.1.15,2013-07-28 11:15:00,
2013-07-28 07:25:00,65.6,62.9,29.99,NW,307,1.0,11.0,91,0.00,,,0.00,Wunderground v.1.15,2013-07-28 11:25:00,
2013-07-28 07:30:00,65.6,62.9,29.99,NW,307,0.0,11.0,91,0.00,,,0.00,Wunderground v.1.15,2013-07-28 11:30:00,
2013-07-28 07:35:00,65.7,63.3,29.99,NW,307,0.0,11.0,92,0.00,,,0.00,Wunderground v.1.15,2013-07-28 11:35:00,
2013-07-28 07:40:00,65.8,63.4,29.99,NW,307,0.0,11.0,92,0.00,,,0.00,Wunderground v.1.15,2013-07-28 11:40:00,
2013-07-28 07:45:00,66.1,63.4,29.99,NW,306,0.0,11.0,91,0.00,,,0.00,Wunderground v.1.15,2013-07-28 11:45:00,
2013-07-28 07:55:00,66.6,63.6,29.99,NW,307,1.0,11.0,90,0.00,,,0.00,Wunderground v.1.15,2013-07-28 11:55:00,
2013-07-28 08:00:00,67.0,63.6,29.99,NW,307,0.0,11.0,89,0.00,,,0.00,Wunderground v.1.15,2013-07-28 12:00:00,
2013-07-28 08:05:00,67.3,63.6,29.99,NW,307,1.0,11.0,88,0.00,,,0.00,Wunderground v.1.15,2013-07-28 12:05:00,
2013-07-28 08:10:00,67.6,63.6,29.99,NW,306,1.0,11.0,87,0.00,,,0.00,Wunderground v.1.15,2013-07-28 12:10:00,
2013-07-28 08:15:00,67.8,63.8,29.99,NW,307,0.0,11.0,87,0.00,,,0.00,Wunderground v.1.15,2013-07-28 12:15:00,
2013-07-28 08:25:00,68.4,64.0,29.99,NW,306,0.0,11.0,86,0.00,,,0.00,Wunderground v.1.15,2013-07-28 12:25:00,
2013-07-28 08:30:00,68.5,64.1,29.99,NW,307,1.0,1.0,86,0.00,,,0.00,Wunderground v.1.15,2013-07-28 12:30:00,
2013-07-28 08:35:00,68.4,63.4,30.00,NW,307,1.0,11.0,84,0.00,,,0.00,Wunderground v.1.15,2013-07-28 12:35:00,
2013-07-28 08:45:00,69.0,64.0,29.99,NW,307,0.0,11.0,84,0.00,,,0.00,Wunderground v.1.15,2013-07-28 12:45:00,
2013-07-28 08:55:00,69.8,63.7,29.99,NW,306,1.0,11.0,81,0.00,,,0.00,Wunderground v.1.15,2013-07-28 12:55:00,
2013-07-28 09:00:00,70.2,63.7,29.99,NW,307,1.0,1.0,80,0.00,,,0.00,Wunderground v.1.15,2013-07-28 13:00:00,
2013-07-28 09:05:00,70.4,64.3,29.99,NW,307,1.0,11.0,81,0.00,,,0.00,Wunderground v.1.15,2013-07-28 13:05:00,
2013-07-28 09:15:00,71.1,64.3,29.99,NW,306,0.0,11.0,79,0.00,,,0.00,Wunderground v.1.15,2013-07-28 13:15:00,
2013-07-28 09:20:00,71.5,64.6,29.99,NW,307,0.0,11.0,79,0.00,,,0.00,Wunderground v.1.15,2013-07-28 13:20:00,
2013-07-28 09:25:00,72.4,65.5,29.99,NW,306,0.0,11.0,79,0.00,,,0.00,Wunderground v.1.15,2013-07-28 13:25:00,
2013-07-28 09:30:00,73.2,64.8,29.99,NW,307,0.0,11.0,75,0.00,,,0.00,Wunderground v.1.15,2013-07-28 13:30:00,
2013-07-28 09:40:00,74.1,65.7,30.00,NW,307,0.0,11.0,75,0.00,,,0.00,Wunderground v.1.15,2013-07-28 13:40:00,
2013-07-28 09:45:00,74.1,64.9,29.99,NW,306,0.0,11.0,73,0.00,,,0.00,Wunderground v.1.15,2013-07-28 13:45:00,
2013-07-28 09:50:00,73.6,65.2,29.99,NW,307,0.0,11.0,75,0.00,,,0.00,Wunderground v.1.15,2013-07-28 13:50:00,
2013-07-28 09:55:00,74.5,65.7,29.99,NW,307,0.0,11.0,74,0.00,,,0.00,Wunderground v.1.15,2013-07-28 13:55:00,
2013-07-28 10:00:00,75.6,66.7,29.99,NNE,14,0.0,11.0,74,0.00,,,0.00,Wunderground v.1.15,2013-07-28 14:00:00,
2013-07-28 10:10:00,76.5,66.8,29.98,NNE,22,0.0,11.0,72,0.00,,,0.00,Wunderground v.1.15,2013-07-28 14:10:00,
2013-07-28 10:15:00,77.0,67.3,29.98,NE,53,0.0,11.0,72,0.00,,,0.00,Wunderground v.1.15,2013-07-28 14:15:00,
2013-07-28 10:20:00,77.2,67.1,29.98,NE,53,0.0,11.0,71,0.00,,,0.00,Wunderground v.1.15,2013-07-28 14:20:00,
2013-07-28 10:30:00,77.8,66.8,29.98,NE,54,0.0,11.0,69,0.00,,,0.00,Wunderground v.1.15,2013-07-28 14:30:00,
2013-07-28 10:35:00,78.4,67.4,29.98,NE,54,0.0,11.0,69,0.00,,,0.00,Wunderground v.1.15,2013-07-28 14:35:00,
2013-07-28 10:40:00,78.9,66.6,29.98,NE,54,0.0,11.0,66,0.00,,,0.00,Wunderground v.1.15,2013-07-28 14:40:00,
2013-07-28 10:45:00,79.6,67.2,29.97,ENE,73,0.0,11.0,66,0.00,,,0.00,Wunderground v.1.15,2013-07-28 14:45:00,
2013-07-28 10:55:00,79.8,66.5,29.97,NE,54,0.0,11.0,64,0.00,,,0.00,Wunderground v.1.15,2013-07-28 14:55:00,
2013-07-28 11:00:00,79.4,66.6,29.97,NE,53,0.0,11.0,65,0.00,,,0.00,Wunderground v.1.15,2013-07-28 15:00:00,
2013-07-28 11:05:00,79.2,67.3,29.97,NNE,22,0.0,11.0,67,0.00,,,0.00,Wunderground v.1.15,2013-07-28 15:05:00,
2013-07-28 11:10:00,79.0,66.7,29.97,NNE,26,1.0,11.0,66,0.00,,,0.00,Wunderground v.1.15,2013-07-28 15:10:00,
2013-07-28 11:15:00,78.8,66.9,29.97,NE,56,1.0,11.0,67,0.00,,,0.00,Wunderground v.1.15,2013-07-28 15:15:00,
2013-07-28 11:25:00,79.7,68.2,29.97,NW,309,0.0,11.0,68,0.00,,,0.00,Wunderground v.1.15,2013-07-28 15:25:00,
2013-07-28 11:30:00,79.4,66.6,29.96,WNW,290,0.0,11.0,65,0.00,,,0.00,Wunderground v.1.15,2013-07-28 15:30:00,
2013-07-28 11:35:00,78.2,66.8,29.96,WNW,296,1.0,11.0,68,0.00,,,0.00,Wunderground v.1.15,2013-07-28 15:35:00,
2013-07-28 11:45:00,79.4,67.5,29.96,North,355,0.0,11.0,67,0.00,,,0.00,Wunderground v.1.15,2013-07-28 15:45:00,
2013-07-28 11:50:00,80.3,68.3,29.96,North,355,0.0,11.0,67,0.00,,,0.00,Wunderground v.1.15,2013-07-28 15:50:00,
2013-07-28 11:55:00,81.2,67.9,29.96,NE,37,0.0,11.0,64,0.00,,,0.00,Wunderground v.1.15,2013-07-28 15:55:00,
2013-07-28 12:00:00,82.1,68.3,29.96,NE,43,0.0,11.0,63,0.00,,,0.00,Wunderground v.1.15,2013-07-28 16:00:00,
2013-07-28 12:10:00,82.5,67.7,29.96,NE,43,0.0,11.0,61,0.00,,,0.00,Wunderground v.1.15,2013-07-28 16:10:00,
2013-07-28 12:15:00,82.2,67.9,29.96,ENE,73,0.0,11.0,62,0.00,,,0.00,Wunderground v.1.15,2013-07-28 16:15:00,
2013-07-28 12:25:00,82.5,68.2,29.96,NE,40,0.0,11.0,62,0.00,,,0.00,Wunderground v.1.15,2013-07-28 16:25:00,
2013-07-28 12:30:00,82.2,68.3,29.96,ESE,112,1.0,11.0,63,0.00,,,0.00,Wunderground v.1.15,2013-07-28 16:30:00,
2013-07-28 12:35:00,81.3,68.4,29.96,ESE,107,1.0,11.0,65,0.00,,,0.00,Wunderground v.1.15,2013-07-28 16:35:00,
2013-07-28 12:45:00,81.7,67.9,29.96,NE,47,0.0,11.0,63,0.00,,,0.00,Wunderground v.1.15,2013-07-28 16:45:00,
2013-07-28 12:50:00,82.4,67.6,29.96,NE,54,0.0,11.0,61,0.00,,,0.00,Wunderground v.1.15,2013-07-28 16:50:00,
2013-07-28 12:55:00,82.6,67.3,29.96,ENE,73,0.0,11.0,60,0.00,,,0.00,Wunderground v.1.15,2013-07-28 16:55:00,
2013-07-28 13:00:00,82.5,67.2,29.95,ENE,73,1.0,1.0,60,0.00,,,0.00,Wunderground v.1.15,2013-07-28 17:00:00,
2013-07-28 13:10:00,82.7,69.7,29.95,ENE,74,1.0,11.0,65,0.00,,,0.00,Wunderground v.1.15,2013-07-28 17:10:00,
2013-07-28 13:15:00,83.1,68.3,29.95,ENE,74,1.0,11.0,61,0.00,,,0.00,Wunderground v.1.15,2013-07-28 17:15:00,
2013-07-28 13:20:00,83.6,68.7,29.95,NE,50,1.0,11.0,61,0.00,,,0.00,Wunderground v.1.15,2013-07-28 17:20:00,
2013-07-28 13:25:00,83.9,68.5,29.95,ENE,78,0.0,11.0,60,0.00,,,0.00,Wunderground v.1.15,2013-07-28 17:25:00,
2013-07-28 13:35:00,83.3,68.0,29.96,SE,136,0.0,11.0,60,0.00,,,0.00,Wunderground v.1.15,2013-07-28 17:35:00,
2013-07-28 13:40:00,82.8,67.0,29.96,SE,131,1.0,11.0,59,0.00,,,0.00,Wunderground v.1.15,2013-07-28 17:40:00,
2013-07-28 13:45:00,81.9,67.1,29.96,SE,124,1.0,11.0,61,0.00,,,0.00,Wunderground v.1.15,2013-07-28 17:45:00,
2013-07-28 13:50:00,81.7,66.9,29.96,ESE,122,1.0,11.0,61,0.00,,,0.00,Wunderground v.1.15,2013-07-28 17:50:00,
2013-07-28 13:55:00,80.9,66.7,29.96,ESE,122,1.0,11.0,62,0.00,,,0.00,Wunderground v.1.15,2013-07-28 17:55:00,
2013-07-28 14:00:00,80.0,64.9,29.96,South,170,2.0,2.0,60,0.00,,,0.00,Wunderground v.1.15,2013-07-28 18:00:00,
2013-07-28 14:10:00,82.0,66.3,29.96,SE,124,1.0,1.0,59,0.00,,,0.00,Wunderground v.1.15,2013-07-28 18:10:00,
2013-07-28 14:20:00,82.3,66.0,29.95,ESE,107,2.0,2.0,58,0.00,,,0.00,Wunderground v.1.15,2013-07-28 18:20:00,
2013-07-28 14:25:00,82.3,65.5,29.95,SSE,149,1.0,11.0,57,0.00,,,0.00,Wunderground v.1.15,2013-07-28 18:25:00,
2013-07-28 14:30:00,81.8,66.6,29.96,SSE,149,2.0,2.0,60,0.00,,,0.00,Wunderground v.1.15,2013-07-28 18:30:00,
2013-07-28 14:40:00,84.1,67.7,29.96,ESE,111,1.0,11.0,58,0.00,,,0.00,Wunderground v.1.15,2013-07-28 18:40:00,
2013-07-28 14:45:00,84.2,66.8,29.95,ESE,106,1.0,11.0,56,0.00,,,0.00,Wunderground v.1.15,2013-07-28 18:45:00,
2013-07-28 14:50:00,83.4,67.1,29.95,SSE,154,2.0,11.0,58,0.00,,,0.00,Wunderground v.1.15,2013-07-28 18:50:00,
2013-07-28 14:55:00,82.4,66.6,29.95,SSE,154,3.0,11.0,59,0.00,,,0.00,Wunderground v.1.15,2013-07-28 18:55:00,
2013-07-28 15:05:00,81.7,66.9,29.95,ESE,113,2.0,11.0,61,0.00,,,0.00,Wunderground v.1.15,2013-07-28 19:05:00,
2013-07-28 15:10:00,82.0,67.2,29.95,SE,146,2.0,2.0,61,0.00,,,0.00,Wunderground v.1.15,2013-07-28 19:10:00,
2013-07-28 15:15:00,81.9,67.1,29.95,SE,146,1.0,11.0,61,0.00,,,0.00,Wunderground v.1.15,2013-07-28 19:15:00,
2013-07-28 15:20:00,82.6,66.8,29.95,SE,146,0.0,11.0,59,0.00,,,0.00,Wunderground v.1.15,2013-07-28 19:20:00,
2013-07-28 15:30:00,83.5,66.2,29.94,SE,124,1.0,1.0,56,0.00,,,0.00,Wunderground v.1.15,2013-07-28 19:30:00,
2013-07-28 15:35:00,83.2,66.9,29.94,SE,124,1.0,11.0,58,0.00,,,0.00,Wunderground v.1.15,2013-07-28 19:35:00,
2013-07-28 15:40:00,83.2,67.4,29.94,ESE,112,0.0,11.0,59,0.00,,,0.00,Wunderground v.1.15,2013-07-28 19:40:00,
2013-07-28 15:50:00,82.8,68.4,29.94,ESE,109,0.0,11.0,62,0.00,,,0.00,Wunderground v.1.15,2013-07-28 19:50:00,
2013-07-28 15:55:00,82.6,68.7,29.94,ESE,109,0.0,11.0,63,0.00,,,0.00,Wunderground v.1.15,2013-07-28 19:55:00,
2013-07-28 16:00:00,82.4,68.1,29.94,ESE,109,0.0,11.0,62,0.00,,,0.00,Wunderground v.1.15,2013-07-28 20:00:00,
2013-07-28 16:05:00,82.4,68.1,29.94,ESE,108,0.0,11.0,62,0.00,,,0.00,Wunderground v.1.15,2013-07-28 20:05:00,
2013-07-28 16:15:00,82.4,68.1,29.94,ESE,109,0.0,11.0,62,0.00,,,0.00,Wunderground v.1.15,2013-07-28 20:15:00,
2013-07-28 16:20:00,82.7,68.8,29.94,ESE,108,0.0,11.0,63,0.00,,,0.00,Wunderground v.1.15,2013-07-28 20:20:00,
2013-07-28 16:25:00,83.0,68.6,29.94,ESE,109,0.0,11.0,62,0.00,,,0.00,Wunderground v.1.15,2013-07-28 20:25:00,
2013-07-28 16:30:00,83.2,67.9,29.94,ESE,109,0.0,11.0,60,0.00,,,0.00,Wunderground v.1.15,2013-07-28 20:30:00,
2013-07-28 16:35:00,83.1,68.7,29.94,ESE,109,0.0,11.0,62,0.00,,,0.00,Wunderground v.1.15,2013-07-28 20:35:00,
2013-07-28 16:40:00,83.2,68.8,29.94,ENE,76,0.0,11.0,62,0.00,,,0.00,Wunderground v.1.15,2013-07-28 20:40:00,
2013-07-28 16:50:00,83.1,68.7,29.94,ENE,70,0.0,11.0,62,0.00,,,0.00,Wunderground v.1.15,2013-07-28 20:50:00,
2013-07-28 16:55:00,83.2,69.3,29.94,ENE,71,0.0,11.0,63,0.00,,,0.00,Wunderground v.1.15,2013-07-28 20:55:00,
2013-07-28 17:00:00,83.4,69.0,29.94,ENE,70,0.0,11.0,62,0.00,,,0.00,Wunderground v.1.15,2013-07-28 21:00:00,
2013-07-28 17:10:00,83.8,69.4,29.94,ENE,67,0.0,11.0,62,0.00,,,0.00,Wunderground v.1.15,2013-07-28 21:10:00,
2013-07-28 17:15:00,83.7,69.3,29.94,ENE,71,0.0,11.0,62,0.00,,,0.00,Wunderground v.1.15,2013-07-28 21:15:00,
2013-07-28 17:20:00,83.2,69.3,29.94,ENE,72,0.0,11.0,63,0.00,,,0.00,Wunderground v.1.15,2013-07-28 21:20:00,
2013-07-28 17:25:00,82.6,71.0,29.94,NE,43,1.0,11.0,68,0.00,,,0.00,Wunderground v.1.15,2013-07-28 21:25:00,
2013-07-28 17:35:00,80.3,71.3,29.94,NE,53,0.0,2.0,74,0.00,,,0.00,Wunderground v.1.15,2013-07-28 21:35:00,
2013-07-28 17:40:00,79.3,71.5,29.95,ENE,71,1.0,11.0,77,0.00,,,0.00,Wunderground v.1.15,2013-07-28 21:40:00,
2013-07-28 17:45:00,78.5,71.1,29.94,ENE,70,1.0,11.0,78,0.00,,,0.00,Wunderground v.1.15,2013-07-28 21:45:00,
2013-07-28 17:50:00,78.0,71.0,29.94,NE,52,2.0,2.0,79,0.00,,,0.00,Wunderground v.1.15,2013-07-28 21:50:00,
2013-07-28 17:55:00,77.8,71.1,29.94,ENE,63,1.0,11.0,80,0.00,,,0.00,Wunderground v.1.15,2013-07-28 21:55:00,
2013-07-28 18:05:00,77.7,71.4,29.94,ENE,68,1.0,11.0,81,0.00,,,0.00,Wunderground v.1.15,2013-07-28 22:05:00,
2013-07-28 18:10:00,77.3,71.0,29.95,NE,55,1.0,11.0,81,0.00,,,0.00,Wunderground v.1.15,2013-07-28 22:10:00,
2013-07-28 18:15:00,76.6,70.3,29.95,NE,53,2.0,11.0,81,0.00,,,0.00,Wunderground v.1.15,2013-07-28 22:15:00,
2013-07-28 18:20:00,75.8,70.3,29.95,ENE,71,2.0,11.0,83,0.00,,,0.00,Wunderground v.1.15,2013-07-28 22:20:00,
2013-07-28 18:30:00,74.7,69.9,29.96,NNE,32,1.0,1.0,85,0.00,,,0.00,Wunderground v.1.15,2013-07-28 22:30:00,
2013-07-28 18:35:00,74.2,69.4,29.96,NE,47,1.0,2.0,85,0.00,,,0.00,Wunderground v.1.15,2013-07-28 22:35:00,
2013-07-28 18:40:00,73.7,69.2,29.96,NE,53,2.0,2.0,86,0.00,,,0.00,Wunderground v.1.15,2013-07-28 22:40:00,
2013-07-28 18:50:00,73.3,69.2,29.97,NE,56,1.0,11.0,87,0.00,,,0.00,Wunderground v.1.15,2013-07-28 22:50:00,
2013-07-28 18:55:00,72.9,68.8,29.97,ENE,70,1.0,11.0,87,0.00,,,0.00,Wunderground v.1.15,2013-07-28 22:55:00,
2013-07-28 19:00:00,72.8,69.4,29.97,NNE,33,1.0,11.0,89,0.00,,,0.00,Wunderground v.1.15,2013-07-28 23:00:00,
2013-07-28 19:05:00,72.6,69.2,29.97,NE,37,0.0,11.0,89,0.00,,,0.00,Wunderground v.1.15,2013-07-28 23:05:00,
2013-07-28 19:15:00,72.3,69.2,29.97,NE,42,0.0,11.0,90,0.00,,,0.00,Wunderground v.1.15,2013-07-28 23:15:00,
2013-07-28 19:20:00,72.1,69.3,29.98,NE,44,0.0,11.0,91,0.00,,,0.00,Wunderground v.1.15,2013-07-28 23:20:00,
2013-07-28 19:25:00,71.9,69.1,29.97,NE,45,0.0,11.0,91,0.00,,,0.00,Wunderground v.1.15,2013-07-28 23:25:00,
2013-07-28 19:30:00,71.6,68.8,29.98,NE,46,0.0,11.0,91,0.00,,,0.00,Wunderground v.1.15,2013-07-28 23:30:00,
2013-07-28 19:35:00,71.4,69.0,29.98,NE,48,0.0,11.0,92,0.00,,,0.00,Wunderground v.1.15,2013-07-28 23:35:00,
2013-07-28 19:45:00,71.1,68.7,29.98,NE,45,0.0,11.0,92,0.00,,,0.00,Wunderground v.1.15,2013-07-28 23:45:00,
2013-07-28 19:50:00,70.9,68.5,29.98,NE,47,0.0,11.0,92,0.00,,,0.00,Wunderground v.1.15,2013-07-28 23:50:00,
2013-07-28 19:55:00,70.9,68.8,29.98,NE,46,0.0,11.0,93,0.00,,,0.00,Wunderground v.1.15,2013-07-28 23:55:00,
2013-07-28 20:05:00,70.6,68.5,29.98,NE,41,0.0,11.0,93,0.00,,,0.00,Wunderground v.1.15,2013-07-29 00:05:00,
2013-07-28 20:10:00,70.4,68.3,29.99,NE,45,0.0,11.0,93,0.00,,,0.00,Wunderground v.1.15,2013-07-29 00:10:00,
2013-07-28 20:15:00,70.2,68.1,29.99,NE,44,0.0,11.0,93,0.00,,,0.00,Wunderground v.1.15,2013-07-29 00:15:00,
2013-07-28 20:20:00,70.2,68.4,29.98,NE,51,0.0,11.0,94,0.00,,,0.00,Wunderground v.1.15,2013-07-29 00:20:00,
2013-07-28 20:25:00,70.1,68.3,29.98,NE,45,0.0,11.0,94,0.00,,,0.00,Wunderground v.1.15,2013-07-29 00:25:00,
2013-07-28 20:35:00,70.0,68.2,29.98,NE,45,0.0,11.0,94,0.00,,,0.00,Wunderground v.1.15,2013-07-29 00:35:00,
2013-07-28 20:40:00,69.9,68.1,29.98,NE,45,0.0,11.0,94,0.00,,,0.00,Wunderground v.1.15,2013-07-29 00:40:00,
2013-07-28 20:45:00,69.7,67.9,29.98,NE,44,0.0,11.0,94,0.00,,,0.00,Wunderground v.1.15,2013-07-29 00:45:00,
2013-07-28 20:50:00,69.6,68.1,29.99,NNE,32,0.0,11.0,95,0.00,,,0.00,Wunderground v.1.15,2013-07-29 00:50:00,
2013-07-28 21:00:00,69.4,67.9,29.99,NNE,31,0.0,11.0,95,0.00,,,0.00,Wunderground v.1.15,2013-07-29 01:00:00,
2013-07-28 21:05:00,69.3,67.8,29.99,NNE,32,0.0,11.0,95,0.00,,,0.00,Wunderground v.1.15,2013-07-29 01:05:00,
2013-07-28 21:10:00,69.2,67.7,29.99,NNE,32,0.0,11.0,95,0.00,,,0.00,Wunderground v.1.15,2013-07-29 01:10:00,
2013-07-28 21:20:00,69.0,67.5,29.99,NNE,32,0.0,11.0,95,0.00,,,0.00,Wunderground v.1.15,2013-07-29 01:20:00,
2013-07-28 21:30:00,68.8,67.3,29.99,NE,34,0.0,11.0,95,0.00,,,0.00,Wunderground v.1.15,2013-07-29 01:30:00,
2013-07-28 21:35:00,68.8,67.3,29.99,NE,34,0.0,11.0,95,0.00,,,0.00,Wunderground v.1.15,2013-07-29 01:35:00,
2013-07-28 21:45:00,68.6,67.1,29.99,NE,34,0.0,11.0,95,0.00,,,0.00,Wunderground v.1.15,2013-07-29 01:45:00,
2013-07-28 21:50:00,68.6,67.1,29.99,NE,34,0.0,11.0,95,0.00,,,0.00,Wunderground v.1.15,2013-07-29 01:50:00,
2013-07-28 22:00:00,68.5,67.3,29.98,NE,34,0.0,11.0,96,0.00,,,0.00,Wunderground v.1.15,2013-07-29 02:00:00,
2013-07-28 22:05:00,68.4,67.2,29.98,NE,35,0.0,11.0,96,0.00,,,0.00,Wunderground v.1.15,2013-07-29 02:05:00,
2013-07-28 22:10:00,68.4,67.2,29.98,NE,35,0.0,11.0,96,0.00,,,0.00,Wunderground v.1.15,2013-07-29 02:10:00,
2013-07-28 22:20:00,68.2,67.0,29.97,NE,54,0.0,11.0,96,0.00,,,0.00,Wunderground v.1.15,2013-07-29 02:20:00,
2013-07-28 22:25:00,68.1,66.9,29.98,NE,45,0.0,11.0,96,0.00,,,0.00,Wunderground v.1.15,2013-07-29 02:25:00,
2013-07-28 22:30:00,68.0,66.8,29.98,NE,48,0.0,11.0,96,0.00,,,0.00,Wunderground v.1.15,2013-07-29 02:30:00,
2013-07-28 22:35:00,67.9,66.7,29.98,NE,49,0.0,11.0,96,0.00,,,0.00,Wunderground v.1.15,2013-07-29 02:35:00,
2013-07-28 22:45:00,67.8,66.6,29.99,NE,49,0.0,11.0,96,0.00,,,0.00,Wunderground v.1.15,2013-07-29 02:45:00,
2013-07-28 22:50:00,67.9,66.7,29.99,NE,49,0.0,11.0,96,0.00,,,0.00,Wunderground v.1.15,2013-07-29 02:50:00,
2013-07-28 22:55:00,67.7,66.5,29.99,NE,49,0.0,11.0,96,0.00,,,0.00,Wunderground v.1.15,2013-07-29 02:55:00,
2013-07-28 23:05:00,67.6,66.4,29.99,NNE,22,0.0,11.0,96,0.00,,,0.00,Wunderground v.1.15,2013-07-29 03:05:00,
2013-07-28 23:10:00,67.6,66.4,29.99,NNE,23,0.0,11.0,96,0.00,,,0.00,Wunderground v.1.15,2013-07-29 03:10:00,
2013-07-28 23:15:00,67.5,66.3,29.99,NNE,22,0.0,11.0,96,0.00,,,0.00,Wunderground v.1.15,2013-07-29 03:15:00,
2013-07-28 23:20:00,67.5,66.3,29.99,NNE,22,0.0,11.0,96,0.00,,,0.00,Wunderground v.1.15,2013-07-29 03:20:00,
2013-07-28 23:25:00,67.4,66.2,30.00,NNE,22,0.0,11.0,96,0.00,,,0.00,Wunderground v.1.15,2013-07-29 03:25:00,
2013-07-28 23:31:00,67.4,66.2,30.00,NNE,22,0.0,11.0,96,0.00,,,0.00,Wunderground v.1.15,2013-07-29 03:31:00,
2013-07-28 23:40:00,67.4,66.5,30.00,NNE,22,0.0,11.0,97,0.00,,,0.00,Wunderground v.1.15,2013-07-29 03:40:00,
2013-07-28 23:50:00,67.3,66.4,30.00,NNE,22,0.0,11.0,97,0.00,,,0.00,Wunderground v.1.15,2013-07-29 03:50:00,
2013-07-28 23:55:00,67.3,66.4,30.01,NNE,22,0.0,11.0,97,0.00,,,0.00,Wunderground v.1.15,2013-07-29 03:55:00,